createdAt,value
2019-04-07T00:01:54.068Z,13.72
2019-04-07T00:04:23.741Z,13.78
2019-04-07T00:06:53.334Z,13.78
2019-04-07T00:09:25.839Z,13.85
2019-04-07T00:11:55.309Z,13.87
2019-04-07T00:14:24.842Z,13.82
2019-04-07T00:16:54.221Z,13.92
2019-04-07T00:19:24.775Z,14.00
2019-04-07T00:21:54.207Z,13.99
2019-04-07T00:24:25.672Z,13.94
2019-04-07T00:26:56.187Z,13.96
2019-04-07T00:29:25.620Z,13.99
2019-04-07T00:31:54.966Z,13.90
2019-04-07T00:34:24.792Z,13.97
2019-04-07T00:36:54.215Z,13.98
2019-04-07T00:39:23.672Z,14.05
2019-04-07T00:41:53.216Z,14.06
2019-04-07T00:44:22.620Z,13.97
2019-04-07T00:46:52.592Z,13.92
2019-04-07T00:49:22.090Z,14.06
2019-04-07T00:51:54.593Z,14.03
2019-04-07T00:54:23.968Z,14.07
2019-04-07T00:56:53.453Z,14.06
2019-04-07T00:59:24.264Z,14.01
2019-04-07T01:01:53.764Z,14.03
2019-04-07T01:04:23.284Z,14.00
2019-04-07T01:06:52.720Z,14.02
2019-04-07T01:09:22.390Z,14.05
2019-04-07T01:11:52.401Z,14.03
2019-04-07T01:14:22.443Z,14.02
2019-04-07T01:16:51.884Z,14.11
2019-04-07T01:19:21.329Z,14.08
2019-04-07T01:21:52.192Z,14.08
2019-04-07T01:24:21.995Z,14.04
2019-04-07T01:26:52.539Z,14.13
2019-04-07T01:29:23.326Z,14.12
2019-04-07T01:31:53.309Z,13.99
2019-04-07T01:34:24.079Z,13.99
2019-04-07T01:36:53.572Z,14.04
2019-04-07T01:39:23.145Z,13.99
2019-04-07T01:42:11.615Z,14.04
2019-04-07T01:45:02.655Z,14.03
2019-04-07T01:47:44.303Z,14.00
2019-04-07T01:50:37.297Z,13.91
2019-04-07T01:53:25.414Z,13.95
2019-04-07T01:56:18.374Z,13.88
2019-04-07T01:59:12.505Z,13.80
2019-04-07T02:02:20.194Z,13.75
2019-04-07T02:05:23.635Z,13.70
2019-04-07T02:08:16.653Z,13.65
2019-04-07T02:11:06.045Z,13.61
2019-04-07T02:13:54.746Z,13.45
2019-04-07T02:16:59.248Z,13.47
2019-04-07T02:19:41.706Z,13.39
2019-04-07T02:22:36.619Z,13.32
2019-04-07T02:25:27.278Z,13.28
2019-04-07T02:28:17.660Z,13.19
2019-04-07T02:31:08.122Z,13.15
2019-04-07T02:33:42.541Z,13.09
2019-04-07T02:36:33.764Z,12.97
2019-04-07T02:39:27.087Z,12.92
2019-04-07T02:42:11.198Z,12.90
2019-04-07T02:45:02.257Z,12.93
2019-04-07T02:47:50.042Z,12.92
2019-04-07T02:50:24.374Z,12.86
2019-04-07T02:53:19.467Z,12.86
2019-04-07T02:55:58.356Z,12.91
2019-04-07T02:58:52.755Z,12.85
2019-04-07T03:01:41.448Z,12.84
2019-04-07T03:04:31.262Z,12.75
2019-04-07T03:07:13.975Z,12.72
2019-04-07T03:09:56.798Z,12.72
2019-04-07T03:12:54.726Z,12.54
2019-04-07T03:15:52.748Z,12.61
2019-04-07T03:18:35.761Z,12.55
2019-04-07T03:21:21.411Z,12.51
2019-04-07T03:23:59.703Z,12.47
2019-04-07T03:26:47.697Z,12.44
2019-04-07T03:29:29.770Z,12.32
2019-04-07T03:32:08.473Z,12.24
2019-04-07T03:35:00.075Z,12.23
2019-04-07T03:37:53.078Z,12.12
2019-04-07T03:40:44.671Z,12.04
2019-04-07T03:43:34.625Z,12.04
2019-04-07T03:46:18.388Z,11.91
2019-04-07T03:49:13.450Z,11.86
2019-04-07T03:52:05.696Z,11.82
2019-04-07T03:54:54.829Z,11.79
2019-04-07T03:57:35.309Z,11.76
2019-04-07T04:00:36.925Z,11.76
2019-04-07T04:03:19.322Z,11.65
2019-04-07T04:08:48.939Z,11.61
2019-04-07T04:11:43.719Z,11.52
2019-04-07T04:14:29.866Z,11.34
2019-04-07T04:16:59.287Z,11.32
2019-04-07T04:19:28.840Z,11.29
2019-04-07T04:21:58.857Z,11.28
2019-04-07T04:24:28.578Z,11.26
2019-04-07T04:26:59.150Z,11.22
2019-04-07T04:29:29.796Z,11.14
2019-04-07T04:31:59.734Z,11.16
2019-04-07T04:34:29.250Z,11.22
2019-04-07T04:36:59.830Z,11.22
2019-04-07T04:39:29.600Z,11.22
2019-04-07T04:41:59.935Z,11.30
2019-04-07T04:44:29.575Z,11.41
2019-04-07T04:47:02.526Z,11.35
2019-04-07T04:49:33.610Z,11.26
2019-04-07T04:52:05.152Z,11.21
2019-04-07T04:54:35.347Z,11.13
2019-04-07T04:57:07.873Z,10.93
2019-04-07T04:59:36.640Z,10.85
2019-04-07T05:02:07.963Z,10.76
2019-04-07T05:04:39.814Z,10.70
2019-04-07T05:07:10.185Z,10.59
2019-04-07T05:09:46.222Z,10.63
2019-04-07T05:12:11.636Z,10.43
2019-04-07T05:14:42.862Z,10.41
2019-04-07T05:17:15.280Z,10.55
2019-04-07T05:19:45.355Z,10.62
2019-04-07T05:22:15.272Z,10.57
2019-04-07T05:24:45.488Z,10.71
2019-04-07T05:27:14.939Z,10.73
2019-04-07T05:29:44.653Z,10.65
2019-04-07T05:32:14.564Z,10.64
2019-04-07T05:34:43.919Z,10.73
2019-04-07T05:37:14.093Z,10.65
2019-04-07T05:39:43.744Z,10.70
2019-04-07T05:42:13.482Z,10.67
2019-04-07T05:44:43.201Z,10.71
2019-04-07T05:47:14.407Z,10.72
2019-04-07T05:49:44.572Z,10.95
2019-04-07T05:52:17.308Z,11.14
2019-04-07T05:54:49.595Z,11.38
2019-04-07T05:57:18.608Z,11.46
2019-04-07T05:59:48.722Z,11.54
2019-04-07T06:02:18.870Z,11.84
2019-04-07T06:04:49.184Z,11.87
2019-04-07T06:07:19.126Z,11.90
2019-04-07T06:09:51.242Z,12.05
2019-04-07T06:12:20.355Z,12.18
2019-04-07T06:14:49.875Z,12.32
2019-04-07T06:17:19.465Z,12.47
2019-04-07T06:19:51.231Z,12.56
2019-04-07T06:22:21.019Z,12.55
2019-04-07T06:24:52.848Z,12.60
2019-04-07T06:27:22.819Z,12.71
2019-04-07T06:29:59.909Z,12.91
2019-04-07T06:32:28.278Z,12.92
2019-04-07T06:34:57.553Z,12.93
2019-04-07T06:37:29.381Z,13.01
2019-04-07T06:39:57.822Z,13.07
2019-04-07T06:42:31.550Z,13.13
2019-04-07T06:45:00.490Z,13.25
2019-04-07T06:47:33.584Z,13.43
2019-04-07T06:50:31.172Z,13.49
2019-04-07T06:53:25.876Z,13.54
2019-04-07T06:56:14.330Z,13.52
2019-04-07T06:58:59.246Z,13.76
2019-04-07T07:01:36.210Z,13.83
2019-04-07T07:04:24.346Z,13.98
2019-04-07T07:07:07.349Z,13.89
2019-04-07T07:10:00.124Z,13.92
2019-04-07T07:12:59.162Z,13.98
2019-04-07T07:15:49.888Z,13.99
2019-04-07T07:18:28.376Z,14.01
2019-04-07T07:21:05.128Z,14.34
2019-04-07T07:23:37.466Z,14.36
2019-04-07T07:26:08.121Z,14.54
2019-04-07T07:28:38.022Z,14.82
2019-04-07T07:31:07.812Z,14.85
2019-04-07T07:33:40.442Z,14.89
2019-04-07T07:36:08.185Z,14.83
2019-04-07T07:38:37.499Z,14.93
2019-04-07T07:41:06.785Z,15.10
2019-04-07T07:43:36.095Z,15.21
2019-04-07T07:46:05.628Z,15.34
2019-04-07T07:48:35.644Z,15.39
2019-04-07T07:51:07.138Z,15.57
2019-04-07T07:53:36.207Z,15.50
2019-04-07T07:56:10.591Z,15.49
2019-04-07T07:58:36.879Z,15.74
2019-04-07T08:01:06.368Z,15.63
2019-04-07T08:03:36.077Z,15.78
2019-04-07T08:06:08.223Z,15.95
2019-04-07T08:08:36.431Z,16.21
2019-04-07T08:11:05.857Z,16.26
2019-04-07T08:13:41.202Z,16.24
2019-04-07T08:16:06.423Z,16.28
2019-04-07T08:18:37.147Z,16.54
2019-04-07T08:21:07.260Z,16.72
2019-04-07T08:23:37.327Z,16.78
2019-04-07T08:26:09.436Z,16.93
2019-04-07T08:28:39.220Z,17.10
2019-04-07T08:31:08.572Z,17.09
2019-04-07T08:33:38.529Z,17.14
2019-04-07T08:36:11.168Z,17.40
2019-04-07T08:38:38.857Z,17.33
2019-04-07T08:41:10.569Z,17.52
2019-04-07T08:43:39.798Z,17.62
2019-04-07T08:46:09.928Z,17.64
2019-04-07T08:48:40.171Z,17.81
2019-04-07T08:51:10.101Z,18.01
2019-04-07T08:53:43.603Z,18.19
2019-04-07T08:56:10.892Z,18.01
2019-04-07T08:58:40.265Z,18.36
2019-04-07T09:01:09.782Z,18.51
2019-04-07T09:03:39.938Z,18.42
2019-04-07T09:06:09.708Z,18.43
2019-04-07T09:08:39.873Z,18.62
2019-04-07T09:11:15.770Z,18.68
2019-04-07T09:13:55.955Z,18.61
2019-04-07T09:16:39.321Z,18.58
2019-04-07T09:19:31.013Z,18.36
2019-04-07T09:22:25.299Z,18.53
2019-04-07T09:25:20.415Z,18.83
2019-04-07T09:28:03.164Z,18.97
2019-04-07T09:30:41.008Z,18.88
2019-04-07T09:33:29.787Z,18.86
2019-04-07T09:36:24.635Z,18.88
2019-04-07T09:39:16.614Z,18.72
2019-04-07T09:42:10.134Z,18.96
2019-04-07T09:44:46.776Z,19.04
2019-04-07T09:47:46.850Z,19.15
2019-04-07T09:50:33.218Z,19.46
2019-04-07T09:53:30.735Z,19.29
2019-04-07T09:56:21.825Z,19.20
2019-04-07T09:59:00.310Z,19.33
2019-04-07T10:02:06.303Z,19.47
2019-04-07T10:04:59.290Z,19.58
2019-04-07T10:07:40.255Z,19.71
2019-04-07T10:10:35.017Z,19.63
2019-04-07T10:13:26.496Z,19.65
2019-04-07T10:16:14.901Z,19.86
2019-04-07T10:19:13.000Z,19.58
2019-04-07T10:22:13.943Z,19.66
2019-04-07T10:25:02.471Z,19.98
2019-04-07T10:27:54.377Z,20.08
2019-04-07T10:30:34.942Z,19.95
2019-04-07T10:33:26.285Z,20.14
2019-04-07T10:36:13.721Z,20.16
2019-04-07T10:39:02.170Z,20.22
2019-04-07T10:41:42.806Z,20.11
2019-04-07T10:44:36.534Z,20.11
2019-04-07T10:47:25.605Z,20.09
2019-04-07T10:50:14.350Z,20.15
2019-04-07T10:53:02.685Z,20.50
2019-04-07T10:55:58.086Z,20.72
2019-04-07T10:58:41.412Z,20.29
2019-04-07T11:01:29.635Z,20.64
2019-04-07T11:04:24.016Z,20.68
2019-04-07T11:07:19.055Z,20.80
2019-04-07T11:10:05.140Z,20.63
2019-04-07T11:12:47.976Z,20.78
2019-04-07T11:15:33.031Z,20.77
2019-04-07T11:18:33.747Z,20.45
2019-04-07T11:21:21.495Z,20.76
2019-04-07T11:24:01.617Z,20.54
2019-04-07T11:26:49.889Z,21.07
2019-04-07T11:29:29.564Z,21.23
2019-04-07T11:32:17.716Z,20.89
2019-04-07T11:34:55.595Z,20.95
2019-04-07T11:37:53.937Z,20.80
2019-04-07T11:40:45.244Z,21.09
2019-04-07T11:43:30.588Z,21.24
2019-04-07T11:46:24.267Z,21.18
2019-04-07T11:49:19.519Z,20.98
2019-04-07T11:52:00.017Z,21.15
2019-04-07T11:54:38.164Z,21.59
2019-04-07T11:57:13.671Z,21.26
2019-04-07T12:00:00.016Z,20.99
2019-04-07T12:02:55.396Z,21.09
2019-04-07T12:05:46.840Z,21.03
2019-04-07T12:08:38.684Z,21.49
2019-04-07T12:11:27.752Z,21.34
2019-04-07T12:14:09.121Z,21.49
2019-04-07T12:16:59.359Z,21.39
2019-04-07T12:19:54.907Z,21.35
2019-04-07T12:22:49.934Z,21.29
2019-04-07T12:25:37.329Z,21.76
2019-04-07T12:28:47.564Z,21.56
2019-04-07T12:31:29.356Z,21.32
2019-04-07T12:34:15.390Z,21.57
2019-04-07T12:37:22.012Z,21.67
2019-04-07T12:40:13.144Z,21.42
2019-04-07T12:43:19.481Z,21.69
2019-04-07T12:45:54.878Z,21.96
2019-04-07T12:48:32.409Z,21.65
2019-04-07T12:51:27.589Z,21.81
2019-04-07T12:54:19.006Z,21.82
2019-04-07T12:57:07.305Z,21.89
2019-04-07T12:59:50.157Z,21.75
2019-04-07T13:02:39.153Z,21.79
2019-04-07T13:05:21.360Z,21.89
2019-04-07T13:08:09.171Z,22.18
2019-04-07T13:11:04.840Z,22.03
2019-04-07T13:13:56.093Z,22.05
2019-04-07T13:16:44.619Z,22.10
2019-04-07T13:19:35.571Z,21.94
2019-04-07T13:22:27.236Z,22.19
2019-04-07T13:25:13.091Z,22.32
2019-04-07T13:27:55.820Z,22.21
2019-04-07T13:30:32.615Z,21.94
2019-04-07T13:33:33.187Z,21.79
2019-04-07T13:36:21.475Z,22.02
2019-04-07T13:39:12.811Z,21.69
2019-04-07T13:42:02.115Z,21.79
2019-04-07T13:44:49.737Z,22.06
2019-04-07T13:47:31.989Z,22.17
2019-04-07T13:50:17.934Z,21.96
2019-04-07T13:53:12.470Z,22.38
2019-04-07T13:55:59.580Z,22.48
2019-04-07T13:58:39.004Z,22.27
2019-04-07T14:01:32.275Z,22.29
2019-04-07T14:04:23.101Z,21.96
2019-04-07T14:06:58.818Z,22.26
2019-04-07T14:09:50.695Z,21.96
2019-04-07T14:12:51.271Z,21.96
2019-04-07T14:15:38.408Z,21.68
2019-04-07T14:18:17.888Z,21.73
2019-04-07T14:21:12.240Z,21.93
2019-04-07T14:24:03.648Z,22.10
2019-04-07T14:27:04.366Z,21.94
2019-04-07T14:30:02.726Z,22.27
2019-04-07T14:32:50.738Z,22.33
2019-04-07T14:35:37.015Z,22.36
2019-04-07T14:38:33.236Z,22.63
2019-04-07T14:41:21.507Z,22.31
2019-04-07T14:43:56.530Z,22.42
2019-04-07T14:46:50.118Z,22.34
2019-04-07T14:49:37.915Z,22.29
2019-04-07T14:52:36.156Z,21.87
2019-04-07T14:55:54.504Z,21.89
2019-04-07T14:59:08.089Z,22.18
2019-04-07T15:01:54.013Z,22.23
2019-04-07T15:04:59.504Z,22.05
2019-04-07T15:07:52.805Z,22.14
2019-04-07T15:10:27.607Z,22.04
2019-04-07T15:13:01.891Z,21.80
2019-04-07T15:15:41.676Z,21.50
2019-04-07T15:18:11.639Z,21.56
2019-04-07T15:20:43.759Z,21.53
2019-04-07T15:23:25.499Z,21.56
2019-04-07T15:25:58.952Z,21.65
2019-04-07T15:28:49.291Z,21.58
2019-04-07T15:31:21.718Z,21.89
2019-04-07T15:34:08.661Z,21.89
2019-04-07T15:36:47.983Z,21.60
2019-04-07T15:39:44.749Z,21.51
2019-04-07T15:42:52.608Z,21.15
2019-04-07T15:45:33.362Z,21.19
2019-04-07T15:48:27.125Z,21.17
2019-04-07T15:51:13.287Z,21.28
2019-04-07T15:54:06.414Z,21.51
2019-04-07T15:56:35.775Z,21.54
2019-04-07T15:59:46.200Z,21.51
2019-04-07T16:02:16.041Z,21.61
2019-04-07T16:04:49.219Z,21.51
2019-04-07T16:07:23.070Z,21.37
2019-04-07T16:10:14.520Z,21.26
2019-04-07T16:13:08.896Z,21.43
2019-04-07T16:21:49.458Z,21.49
2019-04-07T16:24:53.879Z,21.51
2019-04-07T16:27:40.632Z,21.40
2019-04-07T16:35:02.538Z,21.31
2019-04-07T16:37:23.622Z,21.26
2019-04-07T16:40:18.509Z,21.30
2019-04-07T16:43:58.705Z,21.27
2019-04-07T16:46:28.252Z,21.05
2019-04-07T16:49:01.791Z,21.06
2019-04-07T16:51:33.646Z,21.00
2019-04-07T16:54:02.723Z,20.98
2019-04-07T16:56:32.331Z,20.91
2019-04-07T16:59:02.580Z,20.86
2019-04-07T17:01:31.971Z,20.77
2019-04-07T17:04:01.301Z,20.64
2019-04-07T17:06:34.716Z,20.59
2019-04-07T17:09:02.456Z,20.50
2019-04-07T17:11:32.313Z,20.48
2019-04-07T17:14:02.939Z,20.47
2019-04-07T17:16:33.439Z,20.34
2019-04-07T17:19:02.823Z,20.28
2019-04-07T17:21:32.893Z,20.27
2019-04-07T17:24:03.996Z,20.18
2019-04-07T17:26:37.428Z,20.19
2019-04-07T17:29:05.053Z,20.17
2019-04-07T17:31:34.801Z,20.15
2019-04-07T17:34:07.344Z,20.14
2019-04-07T17:36:48.426Z,20.06
2019-04-07T17:40:15.710Z,19.95
2019-04-07T17:42:45.910Z,19.90
2019-04-07T17:45:48.022Z,19.94
2019-04-07T17:48:37.348Z,19.80
2019-04-07T17:51:42.217Z,19.72
2019-04-07T17:54:29.189Z,19.66
2019-04-07T17:57:07.110Z,19.59
2019-04-07T17:59:55.291Z,19.62
2019-04-07T18:02:44.149Z,19.47
2019-04-07T18:05:42.005Z,19.49
2019-04-07T18:08:46.010Z,19.36
2019-04-07T18:11:35.022Z,19.31
2019-04-07T18:14:24.570Z,19.21
2019-04-07T18:17:08.663Z,19.19
2019-04-07T18:19:45.431Z,19.06
2019-04-07T18:22:42.466Z,19.04
2019-04-07T18:25:25.070Z,18.91
2019-04-07T18:28:03.276Z,18.86
2019-04-07T18:30:44.040Z,18.82
2019-04-07T18:33:21.307Z,18.74
2019-04-07T18:36:12.073Z,18.71
2019-04-07T18:39:04.479Z,18.63
2019-04-07T18:41:42.484Z,18.66
2019-04-07T18:44:35.236Z,18.60
2019-04-07T18:47:24.143Z,18.58
2019-04-07T18:50:20.226Z,18.55
2019-04-07T18:53:09.203Z,18.53
2019-04-07T18:55:57.954Z,18.49
2019-04-07T18:59:04.670Z,18.40
2019-04-07T19:02:01.793Z,18.48
2019-04-07T19:05:05.291Z,18.40
2019-04-07T19:07:52.866Z,18.28
2019-04-07T19:10:35.542Z,18.29
2019-04-07T19:13:30.064Z,18.18
2019-04-07T19:16:13.561Z,18.13
2019-04-07T19:19:05.164Z,18.14
2019-04-07T19:21:53.723Z,18.12
2019-04-07T19:25:05.181Z,18.14
2019-04-07T19:27:50.463Z,18.10
2019-04-07T19:30:38.909Z,18.06
2019-04-07T19:33:30.083Z,18.00
2019-04-07T19:36:24.399Z,18.03
2019-04-07T19:39:21.393Z,18.06
2019-04-07T19:42:14.840Z,18.07
2019-04-07T19:45:07.422Z,18.09
2019-04-07T19:48:05.401Z,18.08
2019-04-07T19:50:59.039Z,18.03
2019-04-07T19:53:43.173Z,17.95
2019-04-07T19:56:25.836Z,17.98
2019-04-07T19:59:12.841Z,17.89
2019-04-07T20:02:10.052Z,17.82
2019-04-07T20:05:01.553Z,17.82
2019-04-07T20:07:48.519Z,17.67
2019-04-07T20:10:35.860Z,17.60
2019-04-07T20:13:38.382Z,17.56
2019-04-07T20:16:16.349Z,17.44
2019-04-07T20:18:59.573Z,17.29
2019-04-07T20:21:54.783Z,17.22
2019-04-07T20:24:40.641Z,17.19
2019-04-07T20:27:29.755Z,17.08
2019-04-07T20:30:31.735Z,17.05
2019-04-07T20:33:21.014Z,17.02
2019-04-07T20:36:20.499Z,16.92
2019-04-07T20:39:00.534Z,16.83
2019-04-07T20:41:36.369Z,16.75
2019-04-07T20:44:30.830Z,16.73
2019-04-07T20:47:31.554Z,16.60
2019-04-07T20:50:23.767Z,16.52
2019-04-07T20:53:17.375Z,16.44
2019-04-07T20:55:54.963Z,16.26
2019-04-07T20:58:53.813Z,16.28
2019-04-07T21:01:25.603Z,16.19
2019-04-07T21:04:17.910Z,16.02
2019-04-07T21:07:16.437Z,15.93
2019-04-07T21:09:56.371Z,15.94
2019-04-07T21:12:47.182Z,15.93
2019-04-07T21:15:50.082Z,15.82
2019-04-07T21:18:31.750Z,15.69
2019-04-07T21:21:11.818Z,15.65
2019-04-07T21:23:46.204Z,15.52
2019-04-07T21:26:41.195Z,15.49
2019-04-07T21:29:20.369Z,15.38
2019-04-07T21:32:09.597Z,15.33
2019-04-07T21:34:53.607Z,15.32
2019-04-07T21:37:47.561Z,15.37
2019-04-07T21:40:28.590Z,15.30
2019-04-07T21:43:09.260Z,15.29
2019-04-07T21:46:09.977Z,15.26
2019-04-07T21:49:01.765Z,15.14
2019-04-07T21:51:46.601Z,15.06
2019-04-07T21:54:37.863Z,14.94
2019-04-07T21:57:37.998Z,14.95
2019-04-07T22:00:32.576Z,14.95
2019-04-07T22:03:21.241Z,14.94
2019-04-07T22:06:07.784Z,14.87
2019-04-07T22:08:47.840Z,14.80
2019-04-07T22:11:17.651Z,14.68
2019-04-07T22:13:47.142Z,14.72
2019-04-07T22:16:16.449Z,14.67
2019-04-07T22:18:45.721Z,14.64
2019-04-07T22:21:15.009Z,14.63
2019-04-07T22:23:44.381Z,14.68
2019-04-07T22:26:17.891Z,14.64
2019-04-07T22:28:44.983Z,14.49
2019-04-07T22:31:16.982Z,14.32
2019-04-07T22:33:46.627Z,14.23
2019-04-07T22:36:16.679Z,14.23
2019-04-07T22:38:46.085Z,14.06
2019-04-07T22:41:15.559Z,14.14
2019-04-07T22:43:47.834Z,14.16
2019-04-07T22:46:19.428Z,14.11
2019-04-07T22:48:46.780Z,14.02
2019-04-07T22:51:16.729Z,13.97
2019-04-07T22:53:46.093Z,14.02
2019-04-07T22:56:16.070Z,14.07
2019-04-07T22:58:45.407Z,14.21
2019-04-07T23:01:14.754Z,14.15
2019-04-07T23:03:43.995Z,14.04
2019-04-07T23:06:13.250Z,14.07
2019-04-07T23:08:43.255Z,14.06
2019-04-07T23:11:12.532Z,14.08
2019-04-07T23:13:42.028Z,14.05
2019-04-07T23:16:14.920Z,14.02
2019-04-07T23:18:42.440Z,13.96
2019-04-07T23:21:11.980Z,13.89
2019-04-07T23:23:41.978Z,13.97
2019-04-07T23:26:11.281Z,13.96
2019-04-07T23:28:40.728Z,13.87
2019-04-07T23:31:09.981Z,13.87
2019-04-07T23:33:39.352Z,13.77
2019-04-07T23:36:09.435Z,13.83
2019-04-07T23:38:39.096Z,13.73
2019-04-07T23:41:08.421Z,13.49
2019-04-07T23:43:37.699Z,13.41
2019-04-07T23:46:18.751Z,13.41
2019-04-07T23:48:38.144Z,13.46
2019-04-07T23:51:07.475Z,13.48
2019-04-07T23:54:08.699Z,13.45
2019-04-07T23:56:39.429Z,13.34
2019-04-07T23:59:08.991Z,13.23
